Time;durP1;ratioP1;P1;durP2;ratioP2;P2;SDS_P1;SDS_P2;PMS_P1;PMS_P2;Temp;Humidity;BMP_temperature;BMP_pressure;BME280_temperature;BME280_humidity;BME280_pressure;Samples;Min_cycle;Max_cycle;Signal;HPM_P1;HPM_P2
2022/04/13 00:01:33;;;;;;;9.35;5.82;;;;;;;7.58;100.00;100538.97;5022382;28;20199;-78
2022/04/13 00:04:01;;;;;;;8.93;5.75;;;;;;;7.72;100.00;100568.72;5073758;28;20203;-79
2022/04/13 00:06:28;;;;;;;9.18;5.88;;;;;;;7.42;100.00;100548.75;5073751;28;20195;-79
2022/04/13 00:08:56;;;;;;;8.80;6.07;;;;;;;7.52;100.00;100564.56;5073565;28;20224;-79
2022/04/13 00:11:22;;;;;;;12.30;6.47;;;;;;;7.46;100.00;100566.09;5037764;28;20290;-79
2022/04/13 00:13:49;;;;;;;9.43;6.22;;;;;;;7.43;100.00;100559.97;5073373;28;20191;-79
2022/04/13 00:16:16;;;;;;;9.95;6.32;;;;;;;7.41;100.00;100564.22;5073447;28;20199;-78
2022/04/13 00:18:43;;;;;;;11.10;6.40;;;;;;;7.36;100.00;100552.84;5073237;28;20206;-80
2022/04/13 00:21:11;;;;;;;11.57;5.97;;;;;;;7.33;100.00;100563.06;5073309;28;20205;-78
2022/04/13 00:23:38;;;;;;;7.47;5.25;;;;;;;7.43;100.00;100560.84;5073390;28;20651;-80
2022/04/13 00:26:05;;;;;;;8.25;5.88;;;;;;;7.47;100.00;100562.72;5073126;28;20223;-78
2022/04/13 00:28:31;;;;;;;7.45;5.20;;;;;;;7.51;100.00;100560.22;5038172;28;20617;-78
2022/04/13 00:30:58;;;;;;;7.70;5.63;;;;;;;7.59;100.00;100558.81;5072972;28;20693;-79
2022/04/13 00:33:25;;;;;;;9.25;5.18;;;;;;;7.62;100.00;100559.78;5073555;28;20337;-78
2022/04/13 00:35:54;;;;;;;6.75;4.93;;;;;;;7.65;100.00;100564.16;5072583;28;20195;-78
2022/04/13 00:38:23;;;;;;;6.15;4.57;;;;;;;7.63;100.00;100550.34;5073348;28;20248;-80
2022/04/13 00:40:50;;;;;;;6.57;5.18;;;;;;;7.43;100.00;100529.88;5073083;28;20210;-80
2022/04/13 00:43:20;;;;;;;7.63;4.82;;;;;;;7.65;100.00;100553.84;5073023;28;20215;-79
2022/04/13 00:45:47;;;;;;;5.50;4.47;;;;;;;7.47;100.00;100534.34;5073217;28;20280;-80
2022/04/13 00:48:20;;;;;;;8.93;5.13;;;;;;;7.76;99.02;100549.94;5072466;28;20264;-78
2022/04/13 00:50:47;;;;;;;7.13;4.40;;;;;;;7.78;97.99;100553.41;5071868;28;20206;-78
2022/04/13 00:53:15;;;;;;;6.18;4.53;;;;;;;7.75;96.92;100550.75;5073249;28;20607;-79
2022/04/13 00:55:45;;;;;;;6.45;4.53;;;;;;;7.72;97.19;100548.06;5072531;28;20674;-80
2022/04/13 00:58:14;;;;;;;6.10;4.50;;;;;;;7.40;96.61;100504.00;5072496;28;20603;-80
2022/04/13 01:00:48;;;;;;;8.52;5.20;;;;;;;7.65;97.72;100546.09;5072397;28;20242;-80
2022/04/13 01:03:20;;;;;;;6.00;4.75;;;;;;;7.74;97.94;100547.28;5072901;28;20199;-78
2022/04/13 01:05:47;;;;;;;7.18;4.70;;;;;;;7.66;99.55;100547.88;5072360;28;20230;-78
2022/04/13 01:08:17;;;;;;;7.15;5.20;;;;;;;7.67;99.82;100552.22;5071980;28;20201;-78
2022/04/13 01:10:46;;;;;;;7.30;4.75;;;;;;;7.67;98.59;100549.63;5072609;28;20682;-78
2022/04/13 01:13:14;;;;;;;9.55;5.57;;;;;;;7.58;98.55;100544.13;5072943;28;20579;-78
2022/04/13 01:15:41;;;;;;;7.65;5.45;;;;;;;7.67;98.56;100545.31;5072830;28;20260;-79
2022/04/13 01:18:08;;;;;;;15.20;7.90;;;;;;;7.56;100.00;100518.31;5021096;28;20256;-79
2022/04/13 01:20:35;;;;;;;19.15;9.32;;;;;;;7.51;100.00;100543.06;5072286;28;20549;-79
2022/04/13 01:23:03;;;;;;;20.92;9.57;;;;;;;7.48;100.00;100549.00;5072252;28;20198;-78
2022/04/13 01:25:30;;;;;;;24.30;9.82;;;;;;;7.26;100.00;100523.28;5019781;28;20222;-78
2022/04/13 01:27:57;;;;;;;21.70;9.27;;;;;;;7.41;100.00;100552.19;5071919;28;20199;-78
2022/04/13 01:30:24;;;;;;;21.42;11.13;;;;;;;7.34;100.00;100559.66;5071809;28;20198;-80
2022/04/13 01:32:52;;;;;;;29.20;13.25;;;;;;;7.26;100.00;100553.34;5071463;28;20218;-80
2022/04/13 01:35:18;;;;;;;28.80;12.90;;;;;;;7.16;100.00;100554.72;5071532;28;20230;-79
2022/04/13 01:37:45;;;;;;;18.33;9.48;;;;;;;7.08;100.00;100537.19;5016524;28;20587;-78
2022/04/13 01:40:13;;;;;;;20.13;7.97;;;;;;;7.18;100.00;100552.19;5063306;28;20202;-79
2022/04/13 01:42:40;;;;;;;14.13;7.00;;;;;;;7.07;100.00;100543.19;5071709;28;20198;-79
2022/04/13 01:45:07;;;;;;;14.90;7.68;;;;;;;6.99;100.00;100530.03;5070979;28;20214;-80
2022/04/13 01:47:34;;;;;;;15.68;8.02;;;;;;;6.83;100.00;100517.41;5019670;28;20195;-78
2022/04/13 01:50:01;;;;;;;14.50;7.50;;;;;;;6.79;100.00;100507.78;5071422;28;20206;-80
2022/04/13 01:52:28;;;;;;;11.90;7.20;;;;;;;6.99;100.00;100554.09;5071836;28;20203;-79
2022/04/13 01:54:55;;;;;;;9.38;5.70;;;;;;;7.03;100.00;100537.03;5071418;28;20272;-78
2022/04/13 01:57:23;;;;;;;8.63;6.03;;;;;;;6.97;100.00;100516.19;5071487;28;20207;-79
2022/04/13 01:59:50;;;;;;;8.65;4.68;;;;;;;7.11;100.00;100535.63;5071163;28;20191;-80
2022/04/13 02:02:16;;;;;;;9.55;5.07;;;;;;;7.30;100.00;100535.47;5071491;28;20209;-79
2022/04/13 02:04:43;;;;;;;6.97;4.15;;;;;;;7.44;95.66;100536.81;5071164;28;20211;-80
2022/04/13 02:07:10;;;;;;;7.63;5.03;;;;;;;7.49;97.21;100540.41;5070967;28;20194;-78
2022/04/13 02:09:37;;;;;;;9.45;4.35;;;;;;;7.57;96.80;100540.69;5071275;28;20209;-78
2022/04/13 02:12:04;;;;;;;11.93;4.82;;;;;;;6.96;97.36;100455.16;5071255;28;20627;-78
2022/04/13 02:14:32;;;;;;;7.43;4.45;;;;;;;7.48;100.00;100546.41;5070826;28;20221;-79
2022/04/13 02:16:59;;;;;;;16.25;4.63;;;;;;;7.35;100.00;100533.00;5071206;28;20201;-81
2022/04/13 02:19:26;;;;;;;14.98;5.25;;;;;;;7.43;100.00;100547.06;5071142;28;20626;-79
2022/04/13 02:21:53;;;;;;;8.98;5.05;;;;;;;7.35;100.00;100545.91;5070729;28;20195;-78
2022/04/13 02:24:19;;;;;;;9.15;5.72;;;;;;;7.35;100.00;100546.78;5019589;28;20210;-77
2022/04/13 02:26:46;;;;;;;10.10;5.50;;;;;;;7.31;100.00;100552.66;5071033;28;20305;-78
2022/04/13 02:29:14;;;;;;;13.82;5.78;;;;;;;7.18;100.00;100524.69;5070939;28;20206;-81
2022/04/13 02:31:42;;;;;;;9.45;5.85;;;;;;;7.33;100.00;100548.47;5070957;28;20203;-80
2022/04/13 02:34:09;;;;;;;12.88;6.65;;;;;;;7.28;100.00;100544.81;5070413;28;20230;-82
2022/04/13 02:36:36;;;;;;;14.55;6.97;;;;;;;7.09;100.00;100515.75;5070465;28;20191;-79
2022/04/13 02:39:03;;;;;;;14.95;6.90;;;;;;;7.03;100.00;100529.28;5070782;28;20195;-79
2022/04/13 02:41:30;;;;;;;13.65;6.93;;;;;;;7.02;100.00;100542.16;5013874;28;20729;-81
2022/04/13 02:43:56;;;;;;;15.27;7.63;;;;;;;6.90;100.00;100529.69;5059700;28;20206;-79
2022/04/13 02:46:23;;;;;;;20.80;10.93;;;;;;;6.91;100.00;100541.75;5071105;28;20218;-78
2022/04/13 02:48:51;;;;;;;25.47;11.17;;;;;;;6.75;100.00;100514.53;5070557;28;20214;-78
2022/04/13 02:51:18;;;;;;;24.97;9.90;;;;;;;6.82;100.00;100539.72;5070899;28;20667;-79
2022/04/13 02:53:45;;;;;;;25.00;10.63;;;;;;;6.68;100.00;100532.28;5070760;28;20217;-78
2022/04/13 02:56:12;;;;;;;22.35;9.30;;;;;;;6.74;100.00;100533.38;5070480;28;20263;-79
2022/04/13 02:58:39;;;;;;;14.17;8.73;;;;;;;6.68;100.00;100529.69;5070415;28;20194;-79
2022/04/13 03:01:06;;;;;;;15.90;8.13;;;;;;;6.63;100.00;100526.09;5070652;28;20203;-78
2022/04/13 03:03:33;;;;;;;15.30;7.57;;;;;;;6.60;100.00;100524.25;5070601;28;20203;-79
2022/04/13 03:06:01;;;;;;;16.90;7.93;;;;;;;6.64;100.00;100520.97;5070228;28;20218;-78
2022/04/13 03:08:28;;;;;;;20.33;7.63;;;;;;;6.69;100.00;100529.78;5070525;28;20194;-79
2022/04/13 03:10:55;;;;;;;13.32;7.65;;;;;;;6.66;100.00;100526.22;5070353;28;20206;-79
2022/04/13 03:13:22;;;;;;;11.87;7.97;;;;;;;6.51;100.00;100529.06;5069661;28;20202;-79
2022/04/13 03:15:49;;;;;;;47.97;24.07;;;;;;;6.44;100.00;100515.09;5069922;28;20214;-78
2022/04/13 03:18:15;;;;;;;11.40;7.33;;;;;;;6.52;100.00;100535.09;5070568;28;20625;-78
2022/04/13 03:20:42;;;;;;;8.23;6.37;;;;;;;5.93;100.00;100577.38;5070278;28;20694;-78
2022/04/13 03:23:10;;;;;;;14.63;8.10;;;;;;;6.23;100.00;100565.75;5070343;28;20572;-80
2022/04/13 03:25:37;;;;;;;7.43;5.63;;;;;;;5.76;100.00;100619.50;5070125;28;20226;-79
2022/04/13 03:28:04;;;;;;;12.50;7.43;;;;;;;5.41;100.00;100544.31;5070484;28;20214;-81
2022/04/13 03:30:31;;;;;;;16.47;6.63;;;;;;;5.55;100.00;100601.47;5017770;28;20187;-79
2022/04/13 03:32:58;;;;;;;11.10;8.47;;;;;;;5.56;100.00;100610.06;5069640;28;20194;-80
2022/04/13 03:35:25;;;;;;;10.80;8.57;;;;;;;5.48;100.00;100613.19;5069733;28;20202;-80
2022/04/13 03:37:51;;;;;;;13.80;8.97;;;;;;;5.05;100.00;100580.34;5070244;28;20201;-83
2022/04/13 03:40:20;;;;;;;14.03;9.90;;;;;;;5.64;100.00;100593.25;5071518;28;20199;-84
2022/04/13 03:42:46;;;;;;;14.97;8.13;;;;;;;5.64;100.00;100593.25;5070351;28;20207;-83
2022/04/13 03:45:14;;;;;;;13.27;7.30;;;;;;;5.66;100.00;100601.91;5034326;28;20214;-83
2022/04/13 03:47:42;;;;;;;9.10;7.03;;;;;;;5.54;100.00;100611.66;5070386;28;20290;-81
2022/04/13 03:50:10;;;;;;;8.77;6.83;;;;;;;5.63;100.00;100568.34;5070163;28;20195;-85
2022/04/13 03:52:38;;;;;;;10.40;6.57;;;;;;;5.99;100.00;100613.69;5053640;28;20199;-83
2022/04/13 03:55:07;;;;;;;9.57;7.73;;;;;;;5.99;100.00;100629.13;5069329;28;20191;-81
2022/04/13 03:57:35;;;;;;;11.53;7.07;;;;;;;6.03;100.00;100615.53;5031585;28;20211;-80
2022/04/13 04:00:02;;;;;;;10.60;6.10;;;;;;;6.26;100.00;100625.09;5031195;28;20218;-82
2022/04/13 04:02:28;;;;;;;9.47;6.10;;;;;;;6.37;100.00;100600.66;5060359;28;20203;-81
2022/04/13 04:04:55;;;;;;;9.70;5.67;;;;;;;6.74;100.00;100631.31;5069170;28;20203;-82
2022/04/13 04:07:22;;;;;;;7.33;5.97;;;;;;;6.92;100.00;100637.16;5068928;28;20280;-82
2022/04/13 04:09:50;;;;;;;8.07;5.55;;;;;;;6.99;100.00;100651.19;5069781;28;20716;-81
2022/04/13 04:12:17;;;;;;;8.45;6.45;;;;;;;7.27;100.00;100660.84;5070212;28;20230;-82
2022/04/13 04:14:45;;;;;;;8.82;6.68;;;;;;;7.27;100.00;100620.47;5069606;28;20199;-82
2022/04/13 04:17:12;;;;;;;18.75;6.82;;;;;;;7.78;100.00;100669.56;5069701;28;20199;-83
2022/04/13 04:19:38;;;;;;;10.38;8.18;;;;;;;8.26;100.00;100676.44;5069653;28;20666;-83
2022/04/13 04:22:05;;;;;;;10.48;7.72;;;;;;;8.63;95.09;100677.69;5017715;28;20202;-85
2022/04/13 04:24:32;;;;;;;19.65;11.48;;;;;;;9.00;92.56;100678.00;5072230;28;20667;-84
2022/04/13 04:26:59;;;;;;;15.20;7.85;;;;;;;9.54;87.48;100685.66;5073134;28;20284;-82
2022/04/13 04:29:26;;;;;;;10.88;7.00;;;;;;;10.15;81.88;100681.34;5073850;28;20257;-81
2022/04/13 04:31:54;;;;;;;20.75;8.38;;;;;;;10.83;77.36;100692.56;5073400;28;20287;-80
2022/04/13 04:34:23;;;;;;;23.17;9.20;;;;;;;11.37;72.51;100695.53;5075311;28;20222;-81
2022/04/13 04:36:50;;;;;;;18.13;7.85;;;;;;;11.72;68.89;100698.88;5073484;28;20580;-81
2022/04/13 04:39:17;;;;;;;12.70;6.85;;;;;;;11.83;66.59;100702.59;5072932;28;20211;-81
2022/04/13 04:41:44;;;;;;;19.23;7.53;;;;;;;11.40;68.51;100705.97;5072266;28;20620;-82
2022/04/13 04:44:11;;;;;;;11.45;7.15;;;;;;;11.30;70.12;100704.91;5072945;28;20651;-82
2022/04/13 04:46:39;;;;;;;11.43;6.50;;;;;;;11.25;70.66;100698.72;5052869;28;20245;-82
2022/04/13 04:49:07;;;;;;;12.73;5.65;;;;;;;11.13;72.35;100685.47;5072888;28;20325;-80
2022/04/13 04:51:34;;;;;;;10.18;5.80;;;;;;;11.65;71.71;100702.16;5021290;28;20552;-81
2022/04/13 04:54:02;;;;;;;9.10;6.13;;;;;;;11.77;71.52;100712.84;5072787;28;20194;-81
2022/04/13 04:56:29;;;;;;;8.57;6.22;;;;;;;11.92;70.50;100689.75;5072332;28;20206;-81
2022/04/13 04:58:57;;;;;;;12.07;6.40;;;;;;;12.60;68.45;100722.19;5073041;28;20191;-80
2022/04/13 05:01:24;;;;;;;8.13;6.40;;;;;;;12.19;69.92;100729.28;5072423;28;20230;-81
2022/04/13 05:03:51;;;;;;;7.65;5.93;;;;;;;11.48;72.84;100694.03;5072192;28;20198;-80
2022/04/13 05:06:22;;;;;;;7.70;5.60;;;;;;;11.20;75.24;100704.69;5033448;28;20731;-79
2022/04/13 05:08:49;;;;;;;9.50;5.70;;;;;;;10.37;80.55;100657.75;5061114;28;20679;-80
2022/04/13 05:11:16;;;;;;;5.97;5.25;;;;;;;11.36;80.04;100730.13;5072745;28;20206;-84
2022/04/13 05:13:45;;;;;;;8.30;5.65;;;;;;;11.04;79.69;100721.59;5070967;28;20210;-81
2022/04/13 05:16:13;;;;;;;12.95;6.38;;;;;;;11.32;80.05;100723.09;5074257;28;20203;-81
2022/04/13 05:18:40;;;;;;;11.48;7.00;;;;;;;11.67;78.47;100747.22;5074453;28;20234;-82
2022/04/13 05:21:08;;;;;;;21.67;8.82;;;;;;;11.98;76.31;100728.00;5038203;28;20214;-82
2022/04/13 05:23:36;;;;;;;13.82;6.82;;;;;;;11.74;74.93;100744.81;5073163;28;20201;-83
2022/04/13 05:26:03;;;;;;;6.60;4.97;;;;;;;11.39;75.75;100743.16;5020619;28;20219;-80
2022/04/13 05:28:31;;;;;;;6.97;5.38;;;;;;;10.56;78.50;100697.09;5072385;28;20206;-82
2022/04/13 05:30:58;;;;;;;6.40;5.07;;;;;;;10.89;79.04;100736.81;5072424;28;20205;-81
2022/04/13 05:33:24;;;;;;;8.13;4.93;;;;;;;10.89;76.03;100745.47;5071086;28;20233;-80
2022/04/13 05:35:52;;;;;;;6.63;5.10;;;;;;;10.66;77.88;100743.16;5015478;28;20204;-83
2022/04/13 05:38:19;;;;;;;6.75;5.20;;;;;;;10.29;78.95;100742.19;5052259;28;20203;-83
2022/04/13 05:40:47;;;;;;;7.88;5.07;;;;;;;10.24;79.01;100746.38;5052131;28;20215;-81
2022/04/13 05:43:14;;;;;;;2.78;2.53;;;;;;;9.89;79.59;100749.66;5052049;28;20261;-82
2022/04/13 05:45:41;;;;;;;6.78;4.65;;;;;;;9.87;75.89;100753.94;5052280;28;20208;-82
2022/04/13 05:48:08;;;;;;;5.00;4.30;;;;;;;10.02;75.57;100751.78;5051910;28;20223;-82
2022/04/13 05:50:35;;;;;;;4.32;3.72;;;;;;;10.01;73.79;100755.22;5066657;28;20635;-81
2022/04/13 05:53:02;;;;;;;7.20;4.22;;;;;;;9.96;73.42;100755.06;5036329;28;20210;-81
2022/04/13 05:55:29;;;;;;;2.85;2.70;;;;;;;9.90;70.83;100754.91;5071019;28;20199;-82
2022/04/13 05:57:58;;;;;;;11.80;5.05;;;;;;;10.25;72.24;100755.03;5071165;28;20202;-82
2022/04/13 06:00:25;;;;;;;4.32;3.58;;;;;;;9.82;70.25;100707.19;5070907;28;20222;-79
2022/04/13 06:02:52;;;;;;;8.25;4.32;;;;;;;9.80;68.51;100736.47;5070959;28;20191;-80
2022/04/13 06:05:20;;;;;;;8.35;5.03;;;;;;;10.05;68.39;100761.34;5070730;28;20662;-80
2022/04/13 06:07:48;;;;;;;6.43;4.25;;;;;;;10.06;68.35;100765.72;5035699;28;20227;-79
2022/04/13 06:10:17;;;;;;;4.97;4.15;;;;;;;10.37;69.79;100735.50;5070631;28;20195;-78
2022/04/13 06:12:43;;;;;;;3.40;3.10;;;;;;;10.53;68.62;100765.28;5070607;28;20198;-80
2022/04/13 06:15:13;;;;;;;6.85;3.63;;;;;;;10.62;66.63;100756.88;5070703;28;20632;-79
2022/04/13 06:17:40;;;;;;;3.97;3.58;;;;;;;10.42;65.67;100735.59;5070583;28;20242;-80
2022/04/13 06:20:08;;;;;;;2.85;2.63;;;;;;;10.43;63.37;100756.41;5070445;28;20713;-79
2022/04/13 06:22:39;;;;;;;6.28;3.40;;;;;;;10.44;64.88;100758.16;5070314;28;20570;-79
2022/04/13 06:25:06;;;;;;;6.25;4.50;;;;;;;10.73;65.47;100773.59;5070922;28;20198;-80
2022/04/13 06:27:33;;;;;;;3.50;3.20;;;;;;;10.75;63.25;100748.56;5051971;28;20223;-79
2022/04/13 06:30:00;;;;;;;3.75;2.38;;;;;;;10.73;62.48;100729.50;5070617;28;20199;-80
2022/04/13 06:32:33;;;;;;;6.22;3.35;;;;;;;10.93;62.14;100759.38;5070534;28;20419;-80
2022/04/13 06:35:00;;;;;;;2.50;2.30;;;;;;;10.84;61.87;100759.19;5070506;28;20231;-80
2022/04/13 06:37:27;;;;;;;2.53;2.33;;;;;;;10.91;61.58;100761.09;5073081;28;20289;-79
2022/04/13 06:39:54;;;;;;;4.03;3.10;;;;;;;10.92;61.96;100762.81;5070480;28;20198;-83
2022/04/13 06:42:22;;;;;;;6.75;3.15;;;;;;;10.93;60.96;100765.47;5070332;28;20285;-79
2022/04/13 06:44:50;;;;;;;3.97;3.60;;;;;;;10.97;60.29;100761.22;5070251;28;20202;-81
2022/04/13 06:47:18;;;;;;;4.90;2.95;;;;;;;10.96;59.94;100759.47;5069797;28;20333;-80
2022/04/13 06:49:46;;;;;;;6.00;3.65;;;;;;;11.30;60.35;100762.03;5070173;28;20205;-80
2022/04/13 06:52:13;;;;;;;4.88;3.03;;;;;;;11.18;59.75;100766.91;5070468;28;20202;-81
2022/04/13 06:54:40;;;;;;;1.95;1.85;;;;;;;11.13;58.31;100765.91;5070103;28;20638;-81
2022/04/13 06:57:07;;;;;;;2.78;2.58;;;;;;;11.23;58.61;100767.91;5034987;28;20496;-80
2022/04/13 06:59:34;;;;;;;3.90;2.72;;;;;;;11.50;58.76;100764.16;5070051;28;20236;-81
2022/04/13 07:02:01;;;;;;;3.22;2.92;;;;;;;11.47;59.37;100767.59;5070225;28;20210;-80
2022/04/13 07:04:28;;;;;;;2.03;1.92;;;;;;;11.45;58.78;100772.72;5070178;28;20732;-80
2022/04/13 07:06:56;;;;;;;2.33;2.13;;;;;;;11.08;58.53;100759.75;5070190;28;20231;-80
2022/04/13 07:09:23;;;;;;;3.50;2.88;;;;;;;11.24;58.92;100760.97;5051460;28;20194;-80
2022/04/13 07:11:49;;;;;;;2.13;2.00;;;;;;;11.08;58.70;100718.25;5018141;28;20202;-79
2022/04/13 07:14:16;;;;;;;2.50;2.30;;;;;;;11.63;58.78;100781.81;5070576;28;20260;-80
2022/04/13 07:16:43;;;;;;;2.30;2.08;;;;;;;11.59;58.01;100779.97;5069781;28;20652;-80
2022/04/13 07:19:10;;;;;;;4.68;3.15;;;;;;;11.53;58.87;100738.25;5069895;28;20233;-79
2022/04/13 07:21:36;;;;;;;3.67;3.38;;;;;;;12.12;59.11;100776.81;5070072;28;20198;-80
2022/04/13 07:24:06;;;;;;;3.50;2.92;;;;;;;11.98;57.92;100779.97;5070095;28;20624;-79
2022/04/13 07:26:33;;;;;;;4.32;3.33;;;;;;;12.06;57.63;100771.47;5050833;28;20210;-80
2022/04/13 07:29:00;;;;;;;2.63;2.03;;;;;;;12.35;56.31;100782.44;5069698;28;20293;-80
2022/04/13 07:31:27;;;;;;;6.00;3.78;;;;;;;12.29;56.27;100788.41;5069991;28;20207;-80
2022/04/13 07:33:54;;;;;;;11.43;4.00;;;;;;;12.53;56.62;100793.19;5070046;28;20227;-81
2022/04/13 07:36:21;;;;;;;4.63;3.05;;;;;;;12.65;55.75;100776.94;5069847;28;20205;-80
2022/04/13 07:38:50;;;;;;;4.82;3.22;;;;;;;12.66;54.88;100768.28;5017937;28;20206;-81
2022/04/13 07:41:18;;;;;;;8.25;2.85;;;;;;;12.55;54.56;100769.81;5069925;28;20281;-79
2022/04/13 07:43:44;;;;;;;5.45;3.42;;;;;;;12.50;54.11;100777.53;5069629;28;20211;-81
2022/04/13 07:46:11;;;;;;;5.07;3.50;;;;;;;12.60;55.52;100795.03;5070005;28;20289;-79
2022/04/13 07:48:38;;;;;;;7.72;3.22;;;;;;;12.33;54.65;100730.41;5069549;28;20872;-80
2022/04/13 07:51:05;;;;;;;5.40;3.08;;;;;;;12.90;54.01;100785.19;5069663;28;20628;-80
2022/04/13 07:53:32;;;;;;;3.97;2.90;;;;;;;12.84;53.83;100792.03;5069718;28;20660;-80
2022/04/13 07:55:58;;;;;;;4.90;3.30;;;;;;;12.87;53.19;100772.13;5017717;28;20248;-81
2022/04/13 07:58:26;;;;;;;3.10;2.78;;;;;;;12.88;52.60;100786.00;5070190;28;20194;-80
2022/04/13 08:00:53;;;;;;;3.13;2.05;;;;;;;12.63;51.33;100769.06;5073459;28;20198;-80
2022/04/13 08:03:20;;;;;;;5.55;4.10;;;;;;;12.83;50.74;100779.84;5073847;28;20202;-81
2022/04/13 08:05:47;;;;;;;6.72;4.00;;;;;;;13.13;52.23;100779.50;5077994;28;20675;-81
2022/04/13 08:08:13;;;;;;;6.15;3.65;;;;;;;13.34;52.76;100777.25;5075970;28;20226;-79
2022/04/13 08:10:40;;;;;;;4.70;4.00;;;;;;;13.50;51.95;100778.31;5073034;28;20202;-79
2022/04/13 08:13:07;;;;;;;5.32;3.28;;;;;;;13.50;51.30;100779.19;5072998;28;20256;-81
2022/04/13 08:15:35;;;;;;;5.22;3.08;;;;;;;13.46;52.27;100781.72;5072913;28;20194;-81
2022/04/13 08:18:02;;;;;;;6.03;3.38;;;;;;;13.62;51.76;100778.50;5073189;28;20641;-80
2022/04/13 08:20:29;;;;;;;6.53;3.75;;;;;;;13.57;50.74;100764.53;5072780;28;20656;-80
2022/04/13 08:22:56;;;;;;;3.85;3.55;;;;;;;13.90;52.75;100780.63;5072901;28;20241;-80
2022/04/13 08:25:23;;;;;;;4.65;3.47;;;;;;;13.91;49.58;100782.38;5072748;28;20280;-80
2022/04/13 08:27:49;;;;;;;6.93;4.40;;;;;;;13.95;49.34;100773.72;5073047;28;20292;-79
2022/04/13 08:30:17;;;;;;;5.70;3.70;;;;;;;13.84;49.05;100757.94;5072922;28;20256;-82
2022/04/13 08:32:45;;;;;;;4.82;2.80;;;;;;;14.12;48.95;100787.84;5072762;28;20256;-80
2022/04/13 08:35:12;;;;;;;3.63;3.30;;;;;;;14.13;49.84;100784.38;5072799;28;20230;-80
2022/04/13 08:37:39;;;;;;;4.47;2.53;;;;;;;13.55;48.84;100740.19;5037208;28;20260;-78
2022/04/13 08:40:07;;;;;;;6.10;2.95;;;;;;;13.51;50.39;100777.47;5072609;28;20722;-81
2022/04/13 08:42:43;;;;;;;2.13;1.95;;;;;;;13.35;48.72;100774.63;5072567;28;20683;-80
2022/04/13 08:45:16;;;;;;;7.32;2.78;;;;;;;13.31;49.10;100766.75;5072531;28;20198;-79
2022/04/13 08:47:47;;;;;;;4.18;3.10;;;;;;;13.49;48.68;100771.34;5072344;28;20299;-79
2022/04/13 08:50:14;;;;;;;3.58;2.70;;;;;;;13.60;48.10;100770.66;5072367;28;20202;-81
2022/04/13 08:52:43;;;;;;;3.58;3.13;;;;;;;13.62;47.80;100773.28;5072459;28;20199;-81
2022/04/13 08:55:14;;;;;;;3.47;2.75;;;;;;;13.73;48.55;100771.72;5072587;28;20261;-80
2022/04/13 08:57:46;;;;;;;2.22;2.13;;;;;;;13.62;49.24;100748.13;5072426;28;20289;-80
2022/04/13 09:00:15;;;;;;;2.65;2.45;;;;;;;13.64;48.39;100755.94;5072319;28;20939;-79
2022/04/13 09:03:11;;;;;;;4.60;2.92;;;;;;;13.70;48.82;100764.69;5072309;28;20195;-80
2022/04/13 09:05:39;;;;;;;3.08;2.75;;;;;;;13.68;46.59;100770.75;4991062;28;20264;-80
2022/04/13 09:08:13;;;;;;;2.97;2.78;;;;;;;13.85;43.09;100764.91;4990789;28;20226;-81
2022/04/13 09:10:41;;;;;;;3.03;2.72;;;;;;;13.52;43.28;100740.16;4990708;28;20209;-79
2022/04/13 09:13:10;;;;;;;4.03;2.83;;;;;;;13.78;43.79;100739.63;4991126;28;20201;-80
2022/04/13 09:15:39;;;;;;;13.65;2.65;;;;;;;13.84;42.26;100731.03;4990740;28;20233;-81
2022/04/13 09:18:08;;;;;;;3.03;2.67;;;;;;;13.98;43.50;100742.50;4990351;28;20205;-80
2022/04/13 09:20:35;;;;;;;3.15;2.60;;;;;;;14.28;42.90;100750.63;4990723;28;20705;-84
2022/04/13 09:23:02;;;;;;;7.57;2.58;;;;;;;14.33;42.53;100743.75;4990355;28;20205;-85
2022/04/13 09:25:31;;;;;;;3.33;2.30;;;;;;;14.13;42.67;100734.81;4990264;28;20705;-83
2022/04/13 09:27:59;;;;;;;2.80;2.60;;;;;;;14.19;43.68;100727.06;4990222;28;20274;-84
2022/04/13 09:30:26;;;;;;;3.00;2.80;;;;;;;14.30;43.57;100735.88;4990024;28;20205;-82
2022/04/13 09:32:53;;;;;;;4.13;3.08;;;;;;;14.29;44.27;100733.25;4990395;28;20206;-85
2022/04/13 09:35:22;;;;;;;7.45;4.47;;;;;;;14.74;55.05;100709.34;4989847;28;20233;-76
2022/04/13 09:37:49;;;;;;;3.22;2.40;;;;;;;14.56;44.17;100698.75;4990110;28;20268;-83
2022/04/13 09:40:30;;;;;;;3.17;2.65;;;;;;;14.81;44.02;100722.47;4989859;28;20209;-81
2022/04/13 09:43:05;;;;;;;4.13;2.67;;;;;;;14.68;43.57;100711.91;5040186;28;20290;-81
2022/04/13 09:45:34;;;;;;;3.75;3.05;;;;;;;14.60;43.32;100709.22;5071398;28;20662;-81
2022/04/13 09:48:04;;;;;;;4.10;3.63;;;;;;;14.59;43.92;100717.06;5071284;28;20313;-82
2022/04/13 09:50:33;;;;;;;4.07;2.92;;;;;;;14.68;43.49;100722.34;5071196;28;20271;-79
2022/04/13 09:53:03;;;;;;;3.20;2.90;;;;;;;14.56;43.41;100711.78;5071267;28;20276;-82
2022/04/13 09:55:30;;;;;;;6.20;3.63;;;;;;;14.52;42.96;100694.38;5071435;28;20285;-83
2022/04/13 09:58:04;;;;;;;3.72;2.83;;;;;;;14.30;42.73;100704.56;5071068;28;20732;-82
2022/04/13 10:00:31;;;;;;;3.03;2.83;;;;;;;14.26;43.99;100700.19;5071273;28;20234;-81
2022/04/13 10:03:14;;;;;;;3.10;2.58;;;;;;;14.43;42.87;100689.94;5035558;28;20252;-81
2022/04/13 10:05:46;;;;;;;2.83;2.58;;;;;;;14.39;42.37;100683.81;5071100;28;20198;-80
2022/04/13 10:08:15;;;;;;;3.10;2.80;;;;;;;14.45;43.18;100697.81;5070867;28;20218;-75
2022/04/13 10:10:43;;;;;;;3.53;2.92;;;;;;;14.47;42.11;100696.94;5071071;28;20207;-83
2022/04/13 10:13:11;;;;;;;2.97;2.47;;;;;;;14.58;42.08;100699.66;5070756;28;20209;-82
2022/04/13 10:15:37;;;;;;;3.78;2.55;;;;;;;14.43;42.78;100684.72;5071084;28;20271;-79
2022/04/13 10:18:05;;;;;;;3.47;2.72;;;;;;;14.69;42.50;100690.19;5070736;28;20198;-81
2022/04/13 10:20:47;;;;;;;2.90;2.55;;;;;;;14.75;42.22;100695.44;5070795;28;20202;-81
2022/04/13 10:23:15;;;;;;;4.35;2.85;;;;;;;14.60;43.36;100692.69;5070627;28;20213;-82
2022/04/13 10:25:42;;;;;;;3.70;2.63;;;;;;;14.80;42.41;100688.53;5070948;28;20199;-82
2022/04/13 10:28:12;;;;;;;2.88;2.67;;;;;;;14.86;42.58;100685.97;5070412;28;20223;-83
2022/04/13 10:30:40;;;;;;;2.42;2.25;;;;;;;15.03;41.93;100689.56;5070760;28;20195;-84
2022/04/13 10:33:08;;;;;;;2.88;2.40;;;;;;;15.08;42.13;100684.38;5070811;28;20202;-84
2022/04/13 10:35:37;;;;;;;4.00;2.72;;;;;;;15.00;41.47;100675.59;5070981;28;20206;-83
2022/04/13 10:38:06;;;;;;;2.15;2.05;;;;;;;15.02;41.73;100677.34;5018980;28;20209;-81
2022/04/13 10:40:34;;;;;;;3.00;2.72;;;;;;;14.96;41.03;100679.06;5070472;28;20225;-81
2022/04/13 10:43:03;;;;;;;2.80;2.60;;;;;;;14.87;40.92;100645.94;5070851;28;20628;-81
2022/04/13 10:45:31;;;;;;;2.97;2.72;;;;;;;14.92;40.89;100646.81;5070788;28;20214;-83
2022/04/13 10:48:03;;;;;;;2.58;2.38;;;;;;;15.29;41.11;100661.84;5070493;28;20223;-81
2022/04/13 10:50:39;;;;;;;2.88;2.47;;;;;;;15.19;41.14;100639.16;5070183;28;20264;-81
2022/04/13 10:53:20;;;;;;;2.88;2.67;;;;;;;15.41;41.06;100657.56;5070108;28;20205;-82
2022/04/13 10:55:53;;;;;;;5.10;2.58;;;;;;;15.47;40.13;100654.97;5070294;28;20251;-81
2022/04/13 10:58:29;;;;;;;2.90;2.70;;;;;;;15.57;39.70;100659.38;5070256;28;20590;-84
2022/04/13 11:01:05;;;;;;;5.20;2.88;;;;;;;15.17;39.53;100630.44;5070468;28;20194;-85
2022/04/13 11:03:35;;;;;;;2.83;2.55;;;;;;;15.62;39.96;100655.06;5070288;28;20203;-84
2022/04/13 11:06:04;;;;;;;2.97;2.75;;;;;;;15.60;39.72;100656.78;5070445;28;20190;-85
2022/04/13 11:08:44;;;;;;;4.45;2.80;;;;;;;15.56;39.90;100639.34;5070735;28;20227;-83
2022/04/13 11:11:17;;;;;;;2.88;2.67;;;;;;;15.67;40.27;100650.72;5070466;28;20209;-82
2022/04/13 11:13:46;;;;;;;3.58;3.28;;;;;;;15.63;39.09;100654.16;5070444;28;20205;-83
2022/04/13 11:16:18;;;;;;;2.72;2.50;;;;;;;15.27;39.88;100647.88;5070293;28;20199;-81
2022/04/13 11:19:21;;;;;;;4.03;2.78;;;;;;;15.26;40.07;100651.41;5070415;28;20198;-82
2022/04/13 11:22:17;;;;;;;4.32;2.88;;;;;;;15.22;40.26;100647.00;5020319;28;20674;-83
2022/04/13 11:24:56;;;;;;;3.72;3.42;;;;;;;15.14;40.73;100650.44;5072774;28;20232;-83
2022/04/13 11:27:25;;;;;;;4.45;3.20;;;;;;;15.16;41.28;100640.88;5073758;28;20591;-83
2022/04/13 11:30:03;;;;;;;3.65;2.90;;;;;;;15.42;40.49;100641.00;5071923;28;20228;-84